sensor_id;sensor_type;location;lat;lon;timestamp;pressure;altitude;pressure_sealevel;temperature;humidity
12969;BME280;6549;53.128;8.182;2023-02-13T00:01:42;103640.53;;;6.44;100.00
12969;BME280;6549;53.128;8.182;2023-02-13T00:04:42;103643.88;;;6.41;100.00
12969;BME280;6549;53.128;8.182;2023-02-13T00:07:42;103644.13;;;6.39;100.00
12969;BME280;6549;53.128;8.182;2023-02-13T00:10:43;103650.69;;;6.38;100.00
12969;BME280;6549;53.128;8.182;2023-02-13T00:13:43;103646.88;;;6.39;100.00
12969;BME280;6549;53.128;8.182;2023-02-13T00:16:43;103637.84;;;6.39;100.00
12969;BME280;6549;53.128;8.182;2023-02-13T00:19:43;103640.59;;;6.39;100.00
12969;BME280;6549;53.128;8.182;2023-02-13T00:22:44;103634.63;;;6.37;100.00
12969;BME280;6549;53.128;8.182;2023-02-13T00:25:44;103639.25;;;6.36;100.00
12969;BME280;6549;53.128;8.182;2023-02-13T00:28:44;103639.25;;;6.36;100.00
12969;BME280;6549;53.128;8.182;2023-02-13T00:31:45;103635.72;;;6.36;100.00
12969;BME280;6549;53.128;8.182;2023-02-13T00:34:45;103635.72;;;6.36;100.00
12969;BME280;6549;53.128;8.182;2023-02-13T00:37:45;103623.97;;;6.35;100.00
12969;BME280;6549;53.128;8.182;2023-02-13T00:40:45;103616.59;;;6.36;100.00
12969;BME280;6549;53.128;8.182;2023-02-13T00:43:46;103620.69;;;6.33;100.00
12969;BME280;6549;53.128;8.182;2023-02-13T00:46:47;103619.09;;;6.32;100.00
12969;BME280;6549;53.128;8.182;2023-02-13T00:49:47;103618.53;;;6.30;100.00
12969;BME280;6549;53.128;8.182;2023-02-13T00:52:47;103608.78;;;6.24;100.00
12969;BME280;6549;53.128;8.182;2023-02-13T00:55:48;103614.25;;;6.24;100.00
12969;BME280;6549;53.128;8.182;2023-02-13T00:58:48;103616.16;;;6.23;100.00
12969;BME280;6549;53.128;8.182;2023-02-13T01:01:48;103619.72;;;6.24;100.00
12969;BME280;6549;53.128;8.182;2023-02-13T01:04:49;103623.78;;;6.26;100.00
12969;BME280;6549;53.128;8.182;2023-02-13T01:07:49;103632.25;;;6.25;100.00
12969;BME280;6549;53.128;8.182;2023-02-13T01:10:49;103626.78;;;6.25;100.00
12969;BME280;6549;53.128;8.182;2023-02-13T01:13:50;103629.00;;;6.23;100.00
12969;BME280;6549;53.128;8.182;2023-02-13T01:16:50;103626.78;;;6.25;100.00
12969;BME280;6549;53.128;8.182;2023-02-13T01:19:50;103621.31;;;6.25;100.00
12969;BME280;6549;53.128;8.182;2023-02-13T01:22:50;103616.41;;;6.27;100.00
12969;BME280;6549;53.128;8.182;2023-02-13T01:25:51;103621.31;;;6.25;100.00
12969;BME280;6549;53.128;8.182;2023-02-13T01:28:54;103620.22;;;6.26;100.00
12969;BME280;6549;53.128;8.182;2023-02-13T01:31:54;103626.50;;;6.26;100.00
12969;BME280;6549;53.128;8.182;2023-02-13T01:34:55;103621.31;;;6.25;100.00
12969;BME280;6549;53.128;8.182;2023-02-13T01:37:55;103619.72;;;6.24;100.00
12969;BME280;6549;53.128;8.182;2023-02-13T01:40:55;103615.03;;;6.24;100.00
12969;BME280;6549;53.128;8.182;2023-02-13T01:44:00;103617.25;;;6.22;100.00
12969;BME280;6549;53.128;8.182;2023-02-13T01:47:00;103601.16;;;6.21;100.00
12969;BME280;6549;53.128;8.182;2023-02-13T01:50:08;103608.25;;;6.22;100.00
12969;BME280;6549;53.128;8.182;2023-02-13T01:53:23;103601.16;;;6.21;100.00
12969;BME280;6549;53.128;8.182;2023-02-13T01:56:35;103605.50;;;6.22;100.00
12969;BME280;6549;53.128;8.182;2023-02-13T01:59:45;103590.22;;;6.21;100.00
12969;BME280;6549;53.128;8.182;2023-02-13T02:02:50;103587.81;;;6.19;100.00
12969;BME280;6549;53.128;8.182;2023-02-13T02:05:54;103589.72;;;6.19;100.00
12969;BME280;6549;53.128;8.182;2023-02-13T02:08:59;103602.25;;;6.20;100.00
12969;BME280;6549;53.128;8.182;2023-02-13T02:12:34;103594.34;;;6.18;100.00
12969;BME280;6549;53.128;8.182;2023-02-13T02:15:35;103594.63;;;6.17;100.00
12969;BME280;6549;53.128;8.182;2023-02-13T02:18:36;103599.00;;;6.18;100.00
12969;BME280;6549;53.128;8.182;2023-02-13T02:21:50;103590.81;;;6.18;100.00
12969;BME280;6549;53.128;8.182;2023-02-13T02:25:16;103603.63;;;6.17;100.00
12969;BME280;6549;53.128;8.182;2023-02-13T02:28:30;103592.44;;;6.19;100.00
12969;BME280;6549;53.128;8.182;2023-02-13T02:38:37;103592.72;;;6.17;100.00
12969;BME280;6549;53.128;8.182;2023-02-13T02:45:38;103586.22;;;6.13;100.00
12969;BME280;6549;53.128;8.182;2023-02-13T02:52:07;103568.19;;;6.12;100.00
12969;BME280;6549;53.128;8.182;2023-02-13T02:55:43;103567.38;;;6.12;100.00
12969;BME280;6549;53.128;8.182;2023-02-13T02:59:09;103568.72;;;6.14;100.00
12969;BME280;6549;53.128;8.182;2023-02-13T03:02:29;103569.00;;;6.13;100.00
12969;BME280;6549;53.128;8.182;2023-02-13T03:05:50;103567.69;;;6.10;100.00
12969;BME280;6549;53.128;8.182;2023-02-13T03:09:14;103566.81;;;6.15;100.00
12969;BME280;6549;53.128;8.182;2023-02-13T03:12:41;103556.41;;;6.17;100.00
12969;BME280;6549;53.128;8.182;2023-02-13T03:16:02;103567.94;;;6.09;100.00
12969;BME280;6549;53.128;8.182;2023-02-13T03:19:32;103566.31;;;6.08;100.00
12969;BME280;6549;53.128;8.182;2023-02-13T03:26:12;103559.50;;;6.10;100.00
12969;BME280;6549;53.128;8.182;2023-02-13T03:29:37;103548.81;;;6.14;100.00
12969;BME280;6549;53.128;8.182;2023-02-13T03:36:18;103552.97;;;6.06;100.00
12969;BME280;6549;53.128;8.182;2023-02-13T03:39:59;103552.16;;;6.06;100.00
12969;BME280;6549;53.128;8.182;2023-02-13T03:43:08;103556.50;;;6.07;100.00
12969;BME280;6549;53.128;8.182;2023-02-13T03:46:10;103552.97;;;6.06;100.00
12969;BME280;6549;53.128;8.182;2023-02-13T03:49:16;103548.88;;;6.04;100.00
12969;BME280;6549;53.128;8.182;2023-02-13T03:52:45;103551.91;;;6.02;100.00
12969;BME280;6549;53.128;8.182;2023-02-13T03:55:48;103553.03;;;6.01;100.00
12969;BME280;6549;53.128;8.182;2023-02-13T03:59:15;103553.03;;;6.01;100.00
12969;BME280;6549;53.128;8.182;2023-02-13T04:02:20;103559.28;;;6.02;100.00
12969;BME280;6549;53.128;8.182;2023-02-13T04:05:25;103554.94;;;6.01;100.00
12969;BME280;6549;53.128;8.182;2023-02-13T04:08:28;103545.66;;;6.02;100.00
12969;BME280;6549;53.128;8.182;2023-02-13T04:11:41;103560.38;;;6.01;100.00
12969;BME280;6549;53.128;8.182;2023-02-13T04:14:52;103561.47;;;6.00;100.00
12969;BME280;6549;53.128;8.182;2023-02-13T04:18:04;103564.22;;;6.00;100.00
12969;BME280;6549;53.128;8.182;2023-02-13T04:21:06;103563.66;;;5.98;100.00
12969;BME280;6549;53.128;8.182;2023-02-13T04:24:07;103568.84;;;5.99;100.00
12969;BME280;6549;53.128;8.182;2023-02-13T04:27:12;103572.69;;;5.98;100.00
12969;BME280;6549;53.128;8.182;2023-02-13T04:30:13;103565.88;;;5.96;100.00
12969;BME280;6549;53.128;8.182;2023-02-13T04:33:14;103570.53;;;5.95;100.00
12969;BME280;6549;53.128;8.182;2023-02-13T04:36:14;103571.94;;;5.93;100.00
12969;BME280;6549;53.128;8.182;2023-02-13T04:39:15;103567.25;;;5.93;100.00
12969;BME280;6549;53.128;8.182;2023-02-13T04:42:15;103570.81;;;5.94;100.00
12969;BME280;6549;53.128;8.182;2023-02-13T04:45:15;103572.44;;;5.95;100.00
12969;BME280;6549;53.128;8.182;2023-02-13T04:48:16;103575.44;;;5.93;100.00
12969;BME280;6549;53.128;8.182;2023-02-13T04:51:17;103568.06;;;5.94;100.00
12969;BME280;6549;53.128;8.182;2023-02-13T04:54:17;103568.63;;;5.96;100.00
12969;BME280;6549;53.128;8.182;2023-02-13T04:57:17;103564.28;;;5.90;100.00
12969;BME280;6549;53.128;8.182;2023-02-13T05:00:19;103562.69;;;5.89;100.00
12969;BME280;6549;53.128;8.182;2023-02-13T05:03:19;103568.94;;;5.89;100.00
12969;BME280;6549;53.128;8.182;2023-02-13T05:06:19;103562.69;;;5.89;100.00
12969;BME280;6549;53.128;8.182;2023-02-13T05:09:20;103568.94;;;5.89;100.00
12969;BME280;6549;53.128;8.182;2023-02-13T05:12:20;103565.41;;;5.89;100.00
12969;BME280;6549;53.128;8.182;2023-02-13T05:15:21;103573.59;;;5.89;100.00
12969;BME280;6549;53.128;8.182;2023-02-13T05:18:22;103577.94;;;5.90;100.00
12969;BME280;6549;53.128;8.182;2023-02-13T05:21:22;103580.66;;;5.90;100.00
12969;BME280;6549;53.128;8.182;2023-02-13T05:24:41;103583.38;;;5.90;100.00
12969;BME280;6549;53.128;8.182;2023-02-13T05:27:41;103578.25;;;5.88;100.00
12969;BME280;6549;53.128;8.182;2023-02-13T05:30:42;103585.31;;;5.89;100.00
12969;BME280;6549;53.128;8.182;2023-02-13T05:33:42;103583.94;;;5.92;100.00
12969;BME280;6549;53.128;8.182;2023-02-13T05:36:42;103580.38;;;5.91;100.00
12969;BME280;6549;53.128;8.182;2023-02-13T05:39:42;103574.66;;;5.93;100.00
12969;BME280;6549;53.128;8.182;2023-02-13T05:42:43;103575.19;;;5.90;100.00
12969;BME280;6549;53.128;8.182;2023-02-13T05:45:43;103573.59;;;5.89;100.00
12969;BME280;6549;53.128;8.182;2023-02-13T05:48:43;103575.78;;;5.86;100.00
12969;BME280;6549;53.128;8.182;2023-02-13T05:51:44;103577.41;;;5.88;100.00
12969;BME280;6549;53.128;8.182;2023-02-13T05:54:46;103589.16;;;5.88;100.00
12969;BME280;6549;53.128;8.182;2023-02-13T05:57:46;103596.53;;;5.88;100.00
12969;BME280;6549;53.128;8.182;2023-02-13T06:00:47;103581.47;;;5.85;100.00
12969;BME280;6549;53.128;8.182;2023-02-13T06:03:47;103588.06;;;5.84;100.00
12969;BME280;6549;53.128;8.182;2023-02-13T06:06:48;103585.03;;;5.85;100.00
12969;BME280;6549;53.128;8.182;2023-02-13T06:09:48;103598.44;;;5.87;100.00
12969;BME280;6549;53.128;8.182;2023-02-13T06:12:48;103592.41;;;5.85;100.00
12969;BME280;6549;53.128;8.182;2023-02-13T06:15:48;103597.84;;;5.85;100.00
12969;BME280;6549;53.128;8.182;2023-02-13T06:18:49;103607.44;;;5.82;100.00
12969;BME280;6549;53.128;8.182;2023-02-13T06:21:50;103601.97;;;5.82;100.00
12969;BME280;6549;53.128;8.182;2023-02-13T06:24:50;103604.97;;;5.81;100.00
12969;BME280;6549;53.128;8.182;2023-02-13T06:27:50;103606.38;;;5.78;100.00
12969;BME280;6549;53.128;8.182;2023-02-13T06:30:51;103610.19;;;5.77;100.00
12969;BME280;6549;53.128;8.182;2023-02-13T06:33:51;103616.75;;;5.76;100.00
12969;BME280;6549;53.128;8.182;2023-02-13T06:36:51;103628.75;;;5.75;100.00
12969;BME280;6549;53.128;8.182;2023-02-13T06:39:51;103617.81;;;5.80;100.00
12969;BME280;6549;53.128;8.182;2023-02-13T06:42:52;103621.13;;;5.77;100.00
12969;BME280;6549;53.128;8.182;2023-02-13T06:45:52;103631.22;;;5.77;100.00
12969;BME280;6549;53.128;8.182;2023-02-13T06:48:53;103633.13;;;5.76;100.00
12969;BME280;6549;53.128;8.182;2023-02-13T06:51:53;103624.94;;;5.76;100.00
12969;BME280;6549;53.128;8.182;2023-02-13T06:54:53;103631.47;;;5.75;100.00
12969;BME280;6549;53.128;8.182;2023-02-13T06:57:53;103626.56;;;5.77;100.00
12969;BME280;6549;53.128;8.182;2023-02-13T07:00:54;103623.56;;;5.79;100.00
12969;BME280;6549;53.128;8.182;2023-02-13T07:03:54;103631.75;;;5.79;100.00
12969;BME280;6549;53.128;8.182;2023-02-13T07:06:55;103634.47;;;5.79;100.00
12969;BME280;6549;53.128;8.182;2023-02-13T07:09:56;103629.03;;;5.79;100.00
12969;BME280;6549;53.128;8.182;2023-02-13T07:12:56;103634.47;;;5.79;100.00
12969;BME280;6549;53.128;8.182;2023-02-13T07:15:59;103632.00;;;5.82;100.00
12969;BME280;6549;53.128;8.182;2023-02-13T07:19:00;103623.25;;;5.80;100.00
12969;BME280;6549;53.128;8.182;2023-02-13T07:22:00;103626.28;;;5.79;100.00
12969;BME280;6549;53.128;8.182;2023-02-13T07:25:00;103637.72;;;5.81;100.00
12969;BME280;6549;53.128;8.182;2023-02-13T07:28:04;103634.72;;;5.82;100.00
12969;BME280;6549;53.128;8.182;2023-02-13T07:31:05;103631.72;;;5.84;100.00
12969;BME280;6549;53.128;8.182;2023-02-13T07:34:06;103636.88;;;5.85;100.00
12969;BME280;6549;53.128;8.182;2023-02-13T07:37:07;103636.88;;;5.85;100.00
12969;BME280;6549;53.128;8.182;2023-02-13T07:40:08;103640.19;;;5.88;100.00
12969;BME280;6549;53.128;8.182;2023-02-13T07:43:08;103644.56;;;5.89;100.00
12969;BME280;6549;53.128;8.182;2023-02-13T07:46:09;103649.44;;;5.92;100.00
12969;BME280;6549;53.128;8.182;2023-02-13T07:49:09;103646.72;;;5.92;100.00
12969;BME280;6549;53.128;8.182;2023-02-13T07:52:09;103645.63;;;5.93;100.00
12969;BME280;6549;53.128;8.182;2023-02-13T07:55:10;103645.31;;;5.94;100.00
12969;BME280;6549;53.128;8.182;2023-02-13T07:58:10;103649.94;;;5.94;100.00
12969;BME280;6549;53.128;8.182;2023-02-13T08:01:13;103645.84;;;5.96;100.00
12969;BME280;6549;53.128;8.182;2023-02-13T08:04:13;103647.50;;;5.97;100.00
12969;BME280;6549;53.128;8.182;2023-02-13T08:07:15;103643.09;;;6.01;100.00
12969;BME280;6549;53.128;8.182;2023-02-13T08:10:16;103648.25;;;6.03;100.00
12969;BME280;6549;53.128;8.182;2023-02-13T08:13:34;103645.53;;;6.03;100.00
12969;BME280;6549;53.128;8.182;2023-02-13T08:16:36;103638.97;;;6.04;100.00
12969;BME280;6549;53.128;8.182;2023-02-13T08:19:36;103647.97;;;6.04;100.00
12969;BME280;6549;53.128;8.182;2023-02-13T08:22:37;103646.03;;;6.10;100.00
12969;BME280;6549;53.128;8.182;2023-02-13T08:25:38;103646.28;;;6.13;100.00
12969;BME280;6549;53.128;8.182;2023-02-13T08:28:39;103644.88;;;6.16;100.00
12969;BME280;6549;53.128;8.182;2023-02-13T08:31:39;103647.31;;;6.17;100.00
12969;BME280;6549;53.128;8.182;2023-02-13T08:34:39;103642.09;;;6.21;100.00
12969;BME280;6549;53.128;8.182;2023-02-13T08:37:39;103641.00;;;6.22;100.00
12969;BME280;6549;53.128;8.182;2023-02-13T08:40:40;103647.03;;;6.24;100.00
12969;BME280;6549;53.128;8.182;2023-02-13T08:43:40;103651.91;;;6.27;100.00
12969;BME280;6549;53.128;8.182;2023-02-13T08:46:40;103658.19;;;6.27;100.00
12969;BME280;6549;53.128;8.182;2023-02-13T08:49:41;103648.59;;;6.30;100.00
12969;BME280;6549;53.128;8.182;2023-02-13T08:52:42;103648.31;;;6.31;100.00
12969;BME280;6549;53.128;8.182;2023-02-13T08:55:42;103655.09;;;6.34;100.00
12969;BME280;6549;53.128;8.182;2023-02-13T08:58:43;103659.47;;;6.35;100.00
12969;BME280;6549;53.128;8.182;2023-02-13T09:01:43;103671.22;;;6.36;100.00
12969;BME280;6549;53.128;8.182;2023-02-13T09:04:43;103666.56;;;6.36;100.00
12969;BME280;6549;53.128;8.182;2023-02-13T09:07:44;103663.84;;;6.36;100.00
12969;BME280;6549;53.128;8.182;2023-02-13T09:10:44;103665.50;;;6.32;100.00
12969;BME280;6549;53.128;8.182;2023-02-13T09:13:44;103664.47;;;6.28;100.00
12969;BME280;6549;53.128;8.182;2023-02-13T09:16:45;103664.97;;;6.30;100.00
12969;BME280;6549;53.128;8.182;2023-02-13T09:19:45;103665.56;;;6.27;100.00
12969;BME280;6549;53.128;8.182;2023-02-13T09:22:46;103656.81;;;6.25;100.00
12969;BME280;6549;53.128;8.182;2023-02-13T09:25:46;103662.00;;;6.26;100.00
12969;BME280;6549;53.128;8.182;2023-02-13T09:28:46;103657.59;;;6.30;100.00
12969;BME280;6549;53.128;8.182;2023-02-13T09:31:47;103667.13;;;6.33;100.00
12969;BME280;6549;53.128;8.182;2023-02-13T09:34:47;103668.22;;;6.37;100.00
12969;BME280;6549;53.128;8.182;2023-02-13T09:37:47;103661.38;;;6.35;100.00
12969;BME280;6549;53.128;8.182;2023-02-13T09:40:51;103656.16;;;6.38;100.00
12969;BME280;6549;53.128;8.182;2023-02-13T09:50:28;103648.53;;;6.35;100.00
12969;BME280;6549;53.128;8.182;2023-02-13T09:53:30;103647.69;;;6.40;100.00
12969;BME280;6549;53.128;8.182;2023-02-13T09:56:54;103648.50;;;6.40;100.00
12969;BME280;6549;53.128;8.182;2023-02-13T10:03:16;103644.13;;;6.39;100.00
12969;BME280;6549;53.128;8.182;2023-02-13T10:09:29;103650.84;;;6.52;100.00
12969;BME280;6549;53.128;8.182;2023-02-13T10:12:45;103655.16;;;6.58;100.00
12969;BME280;6549;53.128;8.182;2023-02-13T10:15:53;103649.94;;;6.61;100.00
12969;BME280;6549;53.128;8.182;2023-02-13T10:22:33;103646.06;;;6.67;100.00
12969;BME280;6549;53.128;8.182;2023-02-13T10:25:43;103648.97;;;6.76;100.00
12969;BME280;6549;53.128;8.182;2023-02-13T10:28:55;103653.03;;;6.78;100.00
12969;BME280;6549;53.128;8.182;2023-02-13T10:32:18;103641.28;;;6.78;100.00
12969;BME280;6549;53.128;8.182;2023-02-13T10:35:29;103647.81;;;6.82;100.00
12969;BME280;6549;53.128;8.182;2023-02-13T10:38:32;103641.78;;;6.85;100.00
12969;BME280;6549;53.128;8.182;2023-02-13T10:44:42;103636.75;;;6.68;100.00
12969;BME280;6549;53.128;8.182;2023-02-13T10:48:25;103641.66;;;6.71;100.00
12969;BME280;6549;53.128;8.182;2023-02-13T10:51:32;103640.47;;;6.77;100.00
12969;BME280;6549;53.128;8.182;2023-02-13T11:01:48;103612.63;;;6.75;100.00
12969;BME280;6549;53.128;8.182;2023-02-13T11:05:39;103606.06;;;6.76;100.00
12969;BME280;6549;53.128;8.182;2023-02-13T11:08:23;103600.00;;;6.80;100.00
12969;BME280;6549;53.128;8.182;2023-02-13T11:14:34;103593.63;;;6.89;100.00
12969;BME280;6549;53.128;8.182;2023-02-13T11:17:38;103581.16;;;7.02;100.00
12969;BME280;6549;53.128;8.182;2023-02-13T11:20:44;103575.69;;;7.02;100.00
12969;BME280;6549;53.128;8.182;2023-02-13T11:23:51;103573.06;;;6.92;100.00
12969;BME280;6549;53.128;8.182;2023-02-13T11:27:04;103573.31;;;6.95;100.00
12969;BME280;6549;53.128;8.182;2023-02-13T11:30:31;103574.59;;;7.03;100.00
12969;BME280;6549;53.128;8.182;2023-02-13T11:33:32;103575.03;;;7.10;100.00
12969;BME280;6549;53.128;8.182;2023-02-13T11:36:33;103567.78;;;7.00;100.00
12969;BME280;6549;53.128;8.182;2023-02-13T11:39:33;103575.69;;;7.02;100.00
12969;BME280;6549;53.128;8.182;2023-02-13T11:42:34;103572.31;;;7.10;100.00
12969;BME280;6549;53.128;8.182;2023-02-13T11:45:35;103578.31;;;7.12;100.00
12969;BME280;6549;53.128;8.182;2023-02-13T11:48:35;103574.75;;;7.11;100.00
12969;BME280;6549;53.128;8.182;2023-02-13T11:51:38;103576.97;;;7.09;100.00
12969;BME280;6549;53.128;8.182;2023-02-13T11:54:43;103577.72;;;7.15;100.00
12969;BME280;6549;53.128;8.182;2023-02-13T11:57:55;103575.56;;;7.31;100.00
12969;BME280;6549;53.128;8.182;2023-02-13T12:01:21;103575.66;;;7.26;100.00
12969;BME280;6549;53.128;8.182;2023-02-13T12:04:22;103566.13;;;7.23;100.00
12969;BME280;6549;53.128;8.182;2023-02-13T12:07:28;103565.00;;;7.24;100.00
12969;BME280;6549;53.128;8.182;2023-02-13T12:10:32;103567.22;;;7.22;100.00
12969;BME280;6549;53.128;8.182;2023-02-13T12:13:37;103553.69;;;7.31;100.00
12969;BME280;6549;53.128;8.182;2023-02-13T12:16:44;103559.09;;;7.36;100.00
12969;BME280;6549;53.128;8.182;2023-02-13T12:19:49;103559.31;;;7.39;100.00
12969;BME280;6549;53.128;8.182;2023-02-13T12:23:16;103559.41;;;7.34;100.00
12969;BME280;6549;53.128;8.182;2023-02-13T12:26:39;103546.09;;;7.28;100.00
12969;BME280;6549;53.128;8.182;2023-02-13T12:33:33;103552.09;;;7.30;100.00
12969;BME280;6549;53.128;8.182;2023-02-13T12:36:49;103545.63;;;7.39;100.00
12969;BME280;6549;53.128;8.182;2023-02-13T12:40:03;103544.53;;;7.40;100.00
12969;BME280;6549;53.128;8.182;2023-02-13T12:46:53;103530.75;;;7.64;100.00
12969;BME280;6549;53.128;8.182;2023-02-13T12:56:30;103541.13;;;7.48;100.00
12969;BME280;6549;53.128;8.182;2023-02-13T12:59:59;103531.72;;;7.54;100.00
12969;BME280;6549;53.128;8.182;2023-02-13T13:03:22;103533.28;;;7.60;100.00
12969;BME280;6549;53.128;8.182;2023-02-13T13:06:35;103522.91;;;7.57;100.00
12969;BME280;6549;53.128;8.182;2023-02-13T13:16:25;103516.41;;;7.53;100.00
12969;BME280;6549;53.128;8.182;2023-02-13T13:20:03;103512.81;;;7.39;100.00
12969;BME280;6549;53.128;8.182;2023-02-13T13:23:10;103510.31;;;7.43;100.00
12969;BME280;6549;53.128;8.182;2023-02-13T13:29:21;103508.69;;;7.23;100.00
12969;BME280;6549;53.128;8.182;2023-02-13T13:32:22;103505.13;;;7.22;100.00
12969;BME280;6549;53.128;8.182;2023-02-13T13:35:23;103498.19;;;7.30;100.00
12969;BME280;6549;53.128;8.182;2023-02-13T13:42:08;103498.69;;;7.51;100.00
12969;BME280;6549;53.128;8.182;2023-02-13T13:45:39;103488.63;;;7.46;100.00
12969;BME280;6549;53.128;8.182;2023-02-13T13:49:09;103489.06;;;7.35;100.00
12969;BME280;6549;53.128;8.182;2023-02-13T13:52:28;103494.03;;;7.33;100.00
12969;BME280;6549;53.128;8.182;2023-02-13T13:59:16;103486.88;;;7.37;100.00
12969;BME280;6549;53.128;8.182;2023-02-13T14:11:38;103488.91;;;7.63;100.00
12969;BME280;6549;53.128;8.182;2023-02-13T14:14:43;103487.41;;;7.52;100.00
12969;BME280;6549;53.128;8.182;2023-02-13T14:23:50;103482.28;;;7.32;100.00
12969;BME280;6549;53.128;8.182;2023-02-13T14:26:56;103480.66;;;7.31;100.00
12969;BME280;6549;53.128;8.182;2023-02-13T14:29:56;103471.34;;;7.32;100.00
12969;BME280;6549;53.128;8.182;2023-02-13T14:33:03;103463.47;;;7.44;100.00
12969;BME280;6549;53.128;8.182;2023-02-13T14:36:07;103464.63;;;7.43;100.00
12969;BME280;6549;53.128;8.182;2023-02-13T14:42:27;103464.22;;;7.50;100.00
12969;BME280;6549;53.128;8.182;2023-02-13T14:45:32;103463.53;;;7.58;100.00
12969;BME280;6549;53.128;8.182;2023-02-13T14:48:40;103462.63;;;7.62;100.00
12969;BME280;6549;53.128;8.182;2023-02-13T14:51:48;103450.97;;;7.57;100.00
12969;BME280;6549;53.128;8.182;2023-02-13T14:54:52;103446.69;;;7.51;100.00
12969;BME280;6549;53.128;8.182;2023-02-13T14:57:59;103441.63;;;7.58;100.00
12969;BME280;6549;53.128;8.182;2023-02-13T15:01:27;103436.56;;;7.51;100.00
12969;BME280;6549;53.128;8.182;2023-02-13T15:04:48;103432.63;;;7.57;100.00
12969;BME280;6549;53.128;8.182;2023-02-13T15:08:01;103433.31;;;7.49;100.00
12969;BME280;6549;53.128;8.182;2023-02-13T15:11:04;103440.81;;;7.57;100.00
12969;BME280;6549;53.128;8.182;2023-02-13T15:14:33;103444.91;;;7.60;100.00
12969;BME280;6549;53.128;8.182;2023-02-13T15:17:34;103439.59;;;7.50;100.00
12969;BME280;6549;53.128;8.182;2023-02-13T15:20:40;103432.69;;;7.52;100.00
12969;BME280;6549;53.128;8.182;2023-02-13T15:23:43;103430.91;;;7.48;100.00
12969;BME280;6549;53.128;8.182;2023-02-13T15:26:49;103437.56;;;7.42;100.00
12969;BME280;6549;53.128;8.182;2023-02-13T15:32:55;103438.38;;;7.42;100.00
12969;BME280;6549;53.128;8.182;2023-02-13T15:35:58;103437.84;;;7.40;100.00
12969;BME280;6549;53.128;8.182;2023-02-13T15:39:01;103435.19;;;7.35;100.00
12969;BME280;6549;53.128;8.182;2023-02-13T15:42:04;103433.56;;;7.34;100.00
12969;BME280;6549;53.128;8.182;2023-02-13T15:45:04;103429.94;;;7.39;100.00
12969;BME280;6549;53.128;8.182;2023-02-13T15:48:05;103439.47;;;7.41;100.00
12969;BME280;6549;53.128;8.182;2023-02-13T15:51:06;103432.97;;;7.37;100.00
12969;BME280;6549;53.128;8.182;2023-02-13T15:54:21;103434.16;;;7.31;100.00
12969;BME280;6549;53.128;8.182;2023-02-13T15:57:22;103427.97;;;7.26;100.00
12969;BME280;6549;53.128;8.182;2023-02-13T16:00:32;103430.19;;;7.23;100.00
12969;BME280;6549;53.128;8.182;2023-02-13T16:03:34;103430.41;;;7.27;100.00
12969;BME280;6549;53.128;8.182;2023-02-13T16:06:35;103436.38;;;7.29;100.00
12969;BME280;6549;53.128;8.182;2023-02-13T16:09:36;103432.84;;;7.29;100.00
12969;BME280;6549;53.128;8.182;2023-02-13T16:12:36;103442.06;;;7.33;100.00
12969;BME280;6549;53.128;8.182;2023-02-13T16:15:36;103437.50;;;7.28;100.00
12969;BME280;6549;53.128;8.182;2023-02-13T16:18:38;103440.59;;;7.21;100.00
12969;BME280;6549;53.128;8.182;2023-02-13T16:21:39;103449.59;;;7.22;100.00
12969;BME280;6549;53.128;8.182;2023-02-13T16:24:44;103443.50;;;7.30;100.00
12969;BME280;6549;53.128;8.182;2023-02-13T16:27:48;103439.50;;;7.22;100.00
12969;BME280;6549;53.128;8.182;2023-02-13T16:33:56;103438.03;;;7.30;100.00
12969;BME280;6549;53.128;8.182;2023-02-13T16:36:56;103437.66;;;7.18;100.00
12969;BME280;6549;53.128;8.182;2023-02-13T16:40:18;103437.72;;;7.13;100.00
12969;BME280;6549;53.128;8.182;2023-02-13T16:46:35;103447.69;;;7.04;100.00
12969;BME280;6549;53.128;8.182;2023-02-13T16:49:36;103447.78;;;6.99;100.00
12969;BME280;6549;53.128;8.182;2023-02-13T16:52:37;103445.13;;;6.94;100.00
12969;BME280;6549;53.128;8.182;2023-02-13T16:55:37;103439.66;;;6.94;100.00
12969;BME280;6549;53.128;8.182;2023-02-13T16:58:37;103445.13;;;6.94;100.00
12969;BME280;6549;53.128;8.182;2023-02-13T17:01:38;103452.81;;;6.92;100.00
12969;BME280;6549;53.128;8.182;2023-02-13T17:04:39;103453.78;;;7.01;100.00
12969;BME280;6549;53.128;8.182;2023-02-13T17:07:45;103444.59;;;6.92;100.00
12969;BME280;6549;53.128;8.182;2023-02-13T17:11:02;103444.03;;;6.95;100.00
12969;BME280;6549;53.128;8.182;2023-02-13T17:14:02;103447.25;;;6.97;100.00
12969;BME280;6549;53.128;8.182;2023-02-13T17:17:11;103446.31;;;6.88;100.00
12969;BME280;6549;53.128;8.182;2023-02-13T17:20:19;103449.56;;;6.90;100.00
12969;BME280;6549;53.128;8.182;2023-02-13T17:26:28;103448.81;;;6.84;100.00
12969;BME280;6549;53.128;8.182;2023-02-13T17:29:28;103443.63;;;6.83;100.00
12969;BME280;6549;53.128;8.182;2023-02-13T17:32:29;103449.41;;;6.81;100.00
12969;BME280;6549;53.128;8.182;2023-02-13T17:35:30;103442.69;;;6.92;100.00
12969;BME280;6549;53.128;8.182;2023-02-13T17:38:30;103447.06;;;6.93;100.00
12969;BME280;6549;53.128;8.182;2023-02-13T17:41:30;103435.97;;;6.85;100.00
12969;BME280;6549;53.128;8.182;2023-02-13T17:44:30;103435.22;;;6.79;100.00
12969;BME280;6549;53.128;8.182;2023-02-13T17:47:31;103440.47;;;6.75;100.00
12969;BME280;6549;53.128;8.182;2023-02-13T17:50:33;103439.44;;;6.71;100.00
12969;BME280;6549;53.128;8.182;2023-02-13T17:53:34;103451.47;;;6.70;100.00
12969;BME280;6549;53.128;8.182;2023-02-13T17:56:35;103440.59;;;6.65;100.00
12969;BME280;6549;53.128;8.182;2023-02-13T17:59:35;103447.09;;;6.69;100.00
12969;BME280;6549;53.128;8.182;2023-02-13T18:02:36;103444.91;;;6.71;100.00
12969;BME280;6549;53.128;8.182;2023-02-13T18:05:36;103446.53;;;6.72;100.00
12969;BME280;6549;53.128;8.182;2023-02-13T18:08:36;103442.44;;;6.70;100.00
12969;BME280;6549;53.128;8.182;2023-02-13T18:11:36;103435.88;;;6.71;100.00
12969;BME280;6549;53.128;8.182;2023-02-13T18:14:37;103445.72;;;6.72;100.00